sensor_id;sensor_type;location;lat;lon;timestamp;P1;durP1;ratioP1;P2;durP2;ratioP2
74974;SDS011;68459;50.836;19.138;2023-03-31T00:03:25;17.35;;;8.65;;
74974;SDS011;68459;50.836;19.138;2023-03-31T00:06:30;11.93;;;7.30;;
74974;SDS011;68459;50.836;19.138;2023-03-31T00:09:40;11.10;;;6.63;;
74974;SDS011;68459;50.836;19.138;2023-03-31T00:12:47;11.70;;;6.50;;
74974;SDS011;68459;50.836;19.138;2023-03-31T00:15:54;10.68;;;5.97;;
74974;SDS011;68459;50.836;19.138;2023-03-31T00:19:00;7.43;;;5.40;;
74974;SDS011;68459;50.836;19.138;2023-03-31T00:22:03;8.98;;;5.47;;
74974;SDS011;68459;50.836;19.138;2023-03-31T00:25:09;9.85;;;5.82;;
74974;SDS011;68459;50.836;19.138;2023-03-31T00:28:13;8.95;;;5.50;;
74974;SDS011;68459;50.836;19.138;2023-03-31T00:31:16;8.88;;;5.05;;
74974;SDS011;68459;50.836;19.138;2023-03-31T00:34:21;9.35;;;5.28;;
74974;SDS011;68459;50.836;19.138;2023-03-31T00:37:25;7.82;;;5.00;;
74974;SDS011;68459;50.836;19.138;2023-03-31T00:40:30;7.23;;;4.23;;
74974;SDS011;68459;50.836;19.138;2023-03-31T00:43:35;8.00;;;4.47;;
74974;SDS011;68459;50.836;19.138;2023-03-31T00:46:41;6.18;;;4.30;;
74974;SDS011;68459;50.836;19.138;2023-03-31T00:49:53;8.17;;;3.77;;
74974;SDS011;68459;50.836;19.138;2023-03-31T00:53:01;7.13;;;3.90;;
74974;SDS011;68459;50.836;19.138;2023-03-31T00:56:12;5.65;;;3.60;;
74974;SDS011;68459;50.836;19.138;2023-03-31T00:59:19;6.65;;;3.50;;
74974;SDS011;68459;50.836;19.138;2023-03-31T01:02:30;5.13;;;3.15;;
74974;SDS011;68459;50.836;19.138;2023-03-31T01:05:35;6.50;;;3.47;;
74974;SDS011;68459;50.836;19.138;2023-03-31T01:08:45;6.60;;;3.55;;
74974;SDS011;68459;50.836;19.138;2023-03-31T01:11:53;4.70;;;3.10;;
74974;SDS011;68459;50.836;19.138;2023-03-31T01:14:57;5.80;;;3.28;;
74974;SDS011;68459;50.836;19.138;2023-03-31T01:18:03;5.65;;;2.90;;
74974;SDS011;68459;50.836;19.138;2023-03-31T01:21:23;4.57;;;3.00;;
74974;SDS011;68459;50.836;19.138;2023-03-31T01:25:15;6.45;;;3.33;;
74974;SDS011;68459;50.836;19.138;2023-03-31T01:28:47;5.28;;;2.92;;
74974;SDS011;68459;50.836;19.138;2023-03-31T01:32:12;4.63;;;2.85;;
74974;SDS011;68459;50.836;19.138;2023-03-31T01:36:03;5.00;;;2.50;;
74974;SDS011;68459;50.836;19.138;2023-03-31T01:39:53;5.93;;;3.03;;
74974;SDS011;68459;50.836;19.138;2023-03-31T01:43:28;4.50;;;2.58;;
74974;SDS011;68459;50.836;19.138;2023-03-31T01:46:44;4.73;;;2.87;;
74974;SDS011;68459;50.836;19.138;2023-03-31T01:49:59;4.53;;;2.63;;
74974;SDS011;68459;50.836;19.138;2023-03-31T01:53:12;4.82;;;2.72;;
74974;SDS011;68459;50.836;19.138;2023-03-31T01:56:26;7.40;;;3.10;;
74974;SDS011;68459;50.836;19.138;2023-03-31T01:59:42;4.72;;;2.42;;
74974;SDS011;68459;50.836;19.138;2023-03-31T02:02:57;6.05;;;3.08;;
74974;SDS011;68459;50.836;19.138;2023-03-31T02:06:10;5.00;;;2.30;;
74974;SDS011;68459;50.836;19.138;2023-03-31T02:09:23;6.72;;;2.90;;
74974;SDS011;68459;50.836;19.138;2023-03-31T02:12:35;5.95;;;2.63;;
74974;SDS011;68459;50.836;19.138;2023-03-31T02:15:46;5.22;;;3.10;;
74974;SDS011;68459;50.836;19.138;2023-03-31T02:18:58;4.43;;;2.73;;
74974;SDS011;68459;50.836;19.138;2023-03-31T02:22:07;3.83;;;2.55;;
74974;SDS011;68459;50.836;19.138;2023-03-31T02:25:15;5.05;;;2.60;;
74974;SDS011;68459;50.836;19.138;2023-03-31T02:28:28;7.23;;;2.80;;
74974;SDS011;68459;50.836;19.138;2023-03-31T02:31:35;5.97;;;2.83;;
74974;SDS011;68459;50.836;19.138;2023-03-31T02:34:49;6.82;;;3.17;;
74974;SDS011;68459;50.836;19.138;2023-03-31T02:37:53;5.43;;;3.40;;
74974;SDS011;68459;50.836;19.138;2023-03-31T02:41:00;5.93;;;3.35;;
74974;SDS011;68459;50.836;19.138;2023-03-31T02:44:05;6.43;;;3.30;;
74974;SDS011;68459;50.836;19.138;2023-03-31T02:47:10;6.57;;;3.38;;
74974;SDS011;68459;50.836;19.138;2023-03-31T02:50:18;7.23;;;3.37;;
74974;SDS011;68459;50.836;19.138;2023-03-31T02:53:38;5.18;;;3.15;;
74974;SDS011;68459;50.836;19.138;2023-03-31T02:57:11;5.80;;;3.30;;
74974;SDS011;68459;50.836;19.138;2023-03-31T03:00:39;7.10;;;3.70;;
74974;SDS011;68459;50.836;19.138;2023-03-31T03:04:03;9.25;;;3.88;;
74974;SDS011;68459;50.836;19.138;2023-03-31T03:07:32;8.25;;;3.53;;
74974;SDS011;68459;50.836;19.138;2023-03-31T03:10:52;7.20;;;3.60;;
74974;SDS011;68459;50.836;19.138;2023-03-31T03:14:11;7.18;;;3.75;;
74974;SDS011;68459;50.836;19.138;2023-03-31T03:17:31;8.30;;;4.20;;
74974;SDS011;68459;50.836;19.138;2023-03-31T03:20:41;4.88;;;3.47;;
74974;SDS011;68459;50.836;19.138;2023-03-31T03:23:49;5.70;;;3.67;;
74974;SDS011;68459;50.836;19.138;2023-03-31T03:26:54;6.18;;;3.60;;
74974;SDS011;68459;50.836;19.138;2023-03-31T03:29:58;4.82;;;3.58;;
74974;SDS011;68459;50.836;19.138;2023-03-31T03:33:05;7.83;;;3.90;;
74974;SDS011;68459;50.836;19.138;2023-03-31T03:36:09;8.05;;;4.20;;
74974;SDS011;68459;50.836;19.138;2023-03-31T03:39:13;7.60;;;4.25;;
74974;SDS011;68459;50.836;19.138;2023-03-31T03:42:16;6.07;;;3.95;;
74974;SDS011;68459;50.836;19.138;2023-03-31T03:45:20;5.90;;;3.65;;
74974;SDS011;68459;50.836;19.138;2023-03-31T03:48:25;7.72;;;4.43;;
74974;SDS011;68459;50.836;19.138;2023-03-31T03:51:29;10.10;;;4.40;;
74974;SDS011;68459;50.836;19.138;2023-03-31T03:54:33;6.40;;;4.07;;
74974;SDS011;68459;50.836;19.138;2023-03-31T03:57:37;7.72;;;4.40;;
74974;SDS011;68459;50.836;19.138;2023-03-31T04:00:41;8.48;;;4.55;;
74974;SDS011;68459;50.836;19.138;2023-03-31T04:03:47;8.83;;;4.27;;
74974;SDS011;68459;50.836;19.138;2023-03-31T04:06:52;6.07;;;3.47;;
74974;SDS011;68459;50.836;19.138;2023-03-31T04:09:56;9.68;;;4.78;;
74974;SDS011;68459;50.836;19.138;2023-03-31T04:12:59;6.53;;;4.30;;
74974;SDS011;68459;50.836;19.138;2023-03-31T04:16:03;6.65;;;3.97;;
74974;SDS011;68459;50.836;19.138;2023-03-31T04:19:09;7.75;;;3.90;;
74974;SDS011;68459;50.836;19.138;2023-03-31T04:22:14;6.93;;;4.00;;
74974;SDS011;68459;50.836;19.138;2023-03-31T04:25:21;8.40;;;4.20;;
74974;SDS011;68459;50.836;19.138;2023-03-31T04:28:25;6.95;;;4.45;;
74974;SDS011;68459;50.836;19.138;2023-03-31T04:31:35;7.22;;;3.97;;
74974;SDS011;68459;50.836;19.138;2023-03-31T04:34:45;9.77;;;4.27;;
74974;SDS011;68459;50.836;19.138;2023-03-31T04:37:52;8.77;;;4.65;;
74974;SDS011;68459;50.836;19.138;2023-03-31T04:41:00;7.38;;;4.00;;
74974;SDS011;68459;50.836;19.138;2023-03-31T04:44:04;7.07;;;4.20;;
74974;SDS011;68459;50.836;19.138;2023-03-31T04:47:08;8.43;;;5.07;;
74974;SDS011;68459;50.836;19.138;2023-03-31T04:50:13;7.68;;;4.75;;
74974;SDS011;68459;50.836;19.138;2023-03-31T04:53:18;8.73;;;4.88;;
74974;SDS011;68459;50.836;19.138;2023-03-31T04:56:22;9.63;;;5.47;;
74974;SDS011;68459;50.836;19.138;2023-03-31T04:59:26;8.23;;;5.18;;
74974;SDS011;68459;50.836;19.138;2023-03-31T05:02:30;10.95;;;5.40;;
74974;SDS011;68459;50.836;19.138;2023-03-31T05:05:35;10.93;;;5.30;;
74974;SDS011;68459;50.836;19.138;2023-03-31T05:08:39;8.98;;;5.07;;
74974;SDS011;68459;50.836;19.138;2023-03-31T05:11:43;8.93;;;4.50;;
74974;SDS011;68459;50.836;19.138;2023-03-31T05:14:47;7.03;;;4.55;;
74974;SDS011;68459;50.836;19.138;2023-03-31T05:17:51;10.55;;;5.05;;
74974;SDS011;68459;50.836;19.138;2023-03-31T05:20:57;7.38;;;4.40;;
74974;SDS011;68459;50.836;19.138;2023-03-31T05:24:14;8.02;;;4.95;;
74974;SDS011;68459;50.836;19.138;2023-03-31T05:27:19;8.57;;;4.83;;
74974;SDS011;68459;50.836;19.138;2023-03-31T05:30:23;8.88;;;5.35;;
74974;SDS011;68459;50.836;19.138;2023-03-31T05:33:28;7.97;;;4.60;;
74974;SDS011;68459;50.836;19.138;2023-03-31T05:36:33;9.73;;;5.07;;
74974;SDS011;68459;50.836;19.138;2023-03-31T05:39:38;12.50;;;5.22;;
74974;SDS011;68459;50.836;19.138;2023-03-31T05:42:42;7.25;;;4.75;;
74974;SDS011;68459;50.836;19.138;2023-03-31T05:45:45;7.18;;;4.90;;
74974;SDS011;68459;50.836;19.138;2023-03-31T05:48:49;8.07;;;5.28;;
74974;SDS011;68459;50.836;19.138;2023-03-31T05:51:54;12.07;;;5.05;;
74974;SDS011;68459;50.836;19.138;2023-03-31T05:54:58;11.02;;;5.25;;
74974;SDS011;68459;50.836;19.138;2023-03-31T05:58:02;8.13;;;4.93;;
74974;SDS011;68459;50.836;19.138;2023-03-31T06:01:08;7.68;;;4.88;;
74974;SDS011;68459;50.836;19.138;2023-03-31T06:04:16;11.73;;;5.40;;
74974;SDS011;68459;50.836;19.138;2023-03-31T06:07:23;7.30;;;4.30;;
74974;SDS011;68459;50.836;19.138;2023-03-31T06:10:28;6.15;;;3.97;;
74974;SDS011;68459;50.836;19.138;2023-03-31T06:13:32;9.15;;;4.63;;
74974;SDS011;68459;50.836;19.138;2023-03-31T06:16:36;8.85;;;4.38;;
74974;SDS011;68459;50.836;19.138;2023-03-31T06:19:40;7.78;;;3.70;;
74974;SDS011;68459;50.836;19.138;2023-03-31T06:22:46;6.03;;;3.70;;
74974;SDS011;68459;50.836;19.138;2023-03-31T06:25:49;7.88;;;3.90;;
74974;SDS011;68459;50.836;19.138;2023-03-31T06:28:53;7.57;;;3.87;;
74974;SDS011;68459;50.836;19.138;2023-03-31T06:31:57;7.38;;;3.83;;
74974;SDS011;68459;50.836;19.138;2023-03-31T06:35:02;8.48;;;3.72;;
74974;SDS011;68459;50.836;19.138;2023-03-31T06:38:07;7.20;;;3.50;;
74974;SDS011;68459;50.836;19.138;2023-03-31T06:41:12;6.07;;;2.70;;
74974;SDS011;68459;50.836;19.138;2023-03-31T06:44:17;7.18;;;4.07;;
74974;SDS011;68459;50.836;19.138;2023-03-31T06:47:24;5.55;;;2.70;;
74974;SDS011;68459;50.836;19.138;2023-03-31T06:50:27;5.80;;;3.15;;
74974;SDS011;68459;50.836;19.138;2023-03-31T06:53:33;4.20;;;3.00;;
74974;SDS011;68459;50.836;19.138;2023-03-31T06:56:37;5.60;;;2.65;;
74974;SDS011;68459;50.836;19.138;2023-03-31T06:59:41;5.50;;;3.10;;
74974;SDS011;68459;50.836;19.138;2023-03-31T07:02:45;5.67;;;3.37;;
74974;SDS011;68459;50.836;19.138;2023-03-31T07:05:49;6.60;;;3.30;;
74974;SDS011;68459;50.836;19.138;2023-03-31T07:08:56;5.67;;;3.00;;
74974;SDS011;68459;50.836;19.138;2023-03-31T07:12:00;6.43;;;3.35;;
74974;SDS011;68459;50.836;19.138;2023-03-31T07:15:06;6.68;;;3.38;;
74974;SDS011;68459;50.836;19.138;2023-03-31T07:18:11;6.15;;;3.60;;
74974;SDS011;68459;50.836;19.138;2023-03-31T07:21:16;6.78;;;3.00;;
74974;SDS011;68459;50.836;19.138;2023-03-31T07:24:22;5.63;;;2.88;;
74974;SDS011;68459;50.836;19.138;2023-03-31T07:27:25;5.28;;;2.90;;
74974;SDS011;68459;50.836;19.138;2023-03-31T07:30:29;5.03;;;2.60;;
74974;SDS011;68459;50.836;19.138;2023-03-31T07:33:33;6.90;;;2.80;;
74974;SDS011;68459;50.836;19.138;2023-03-31T07:36:37;4.90;;;2.67;;
74974;SDS011;68459;50.836;19.138;2023-03-31T07:39:43;6.10;;;2.37;;
74974;SDS011;68459;50.836;19.138;2023-03-31T07:42:47;4.97;;;2.45;;
74974;SDS011;68459;50.836;19.138;2023-03-31T07:45:53;4.20;;;2.35;;
74974;SDS011;68459;50.836;19.138;2023-03-31T07:48:56;4.57;;;2.25;;
74974;SDS011;68459;50.836;19.138;2023-03-31T07:52:03;6.68;;;2.22;;
74974;SDS011;68459;50.836;19.138;2023-03-31T07:55:08;5.13;;;2.53;;
74974;SDS011;68459;50.836;19.138;2023-03-31T07:58:13;4.70;;;2.60;;
74974;SDS011;68459;50.836;19.138;2023-03-31T08:01:17;5.70;;;2.63;;
74974;SDS011;68459;50.836;19.138;2023-03-31T08:04:27;5.18;;;2.28;;
74974;SDS011;68459;50.836;19.138;2023-03-31T08:07:32;6.20;;;2.30;;
74974;SDS011;68459;50.836;19.138;2023-03-31T08:10:37;5.43;;;2.17;;
74974;SDS011;68459;50.836;19.138;2023-03-31T08:13:41;5.53;;;1.80;;
74974;SDS011;68459;50.836;19.138;2023-03-31T08:16:45;6.00;;;2.00;;
74974;SDS011;68459;50.836;19.138;2023-03-31T08:19:49;6.65;;;2.08;;
74974;SDS011;68459;50.836;19.138;2023-03-31T08:22:53;6.45;;;2.17;;
74974;SDS011;68459;50.836;19.138;2023-03-31T08:26:07;5.82;;;2.17;;
74974;SDS011;68459;50.836;19.138;2023-03-31T08:29:15;4.45;;;2.22;;
74974;SDS011;68459;50.836;19.138;2023-03-31T08:32:20;2.83;;;1.43;;
74974;SDS011;68459;50.836;19.138;2023-03-31T08:35:25;4.50;;;1.70;;
74974;SDS011;68459;50.836;19.138;2023-03-31T08:38:29;6.82;;;1.75;;
74974;SDS011;68459;50.836;19.138;2023-03-31T08:41:38;3.23;;;1.63;;
74974;SDS011;68459;50.836;19.138;2023-03-31T08:44:56;4.82;;;1.80;;
74974;SDS011;68459;50.836;19.138;2023-03-31T08:48:09;5.68;;;1.60;;
74974;SDS011;68459;50.836;19.138;2023-03-31T08:51:27;3.88;;;1.50;;
74974;SDS011;68459;50.836;19.138;2023-03-31T08:54:35;3.47;;;1.30;;
74974;SDS011;68459;50.836;19.138;2023-03-31T08:57:49;3.78;;;1.20;;
74974;SDS011;68459;50.836;19.138;2023-03-31T09:01:03;3.70;;;1.17;;
74974;SDS011;68459;50.836;19.138;2023-03-31T09:04:25;3.70;;;1.43;;
74974;SDS011;68459;50.836;19.138;2023-03-31T09:07:55;3.25;;;1.30;;
74974;SDS011;68459;50.836;19.138;2023-03-31T09:11:12;3.63;;;1.15;;
74974;SDS011;68459;50.836;19.138;2023-03-31T09:14:31;4.93;;;1.50;;
74974;SDS011;68459;50.836;19.138;2023-03-31T09:17:40;6.47;;;1.10;;
74974;SDS011;68459;50.836;19.138;2023-03-31T09:20:51;3.22;;;1.17;;
74974;SDS011;68459;50.836;19.138;2023-03-31T09:24:05;2.47;;;1.10;;
74974;SDS011;68459;50.836;19.138;2023-03-31T09:27:17;3.33;;;0.98;;
74974;SDS011;68459;50.836;19.138;2023-03-31T09:30:25;3.55;;;1.27;;
74974;SDS011;68459;50.836;19.138;2023-03-31T09:33:32;3.30;;;1.10;;
74974;SDS011;68459;50.836;19.138;2023-03-31T09:36:41;4.40;;;1.17;;
74974;SDS011;68459;50.836;19.138;2023-03-31T09:39:45;2.50;;;1.38;;
74974;SDS011;68459;50.836;19.138;2023-03-31T09:42:50;5.20;;;1.30;;
74974;SDS011;68459;50.836;19.138;2023-03-31T09:46:01;2.23;;;1.10;;
74974;SDS011;68459;50.836;19.138;2023-03-31T09:49:14;4.43;;;1.02;;
74974;SDS011;68459;50.836;19.138;2023-03-31T09:52:25;3.95;;;1.10;;
74974;SDS011;68459;50.836;19.138;2023-03-31T09:55:36;3.63;;;1.15;;
74974;SDS011;68459;50.836;19.138;2023-03-31T09:58:48;3.88;;;1.17;;
74974;SDS011;68459;50.836;19.138;2023-03-31T10:01:54;2.35;;;1.00;;
74974;SDS011;68459;50.836;19.138;2023-03-31T10:05:03;3.90;;;1.33;;
74974;SDS011;68459;50.836;19.138;2023-03-31T10:08:18;3.77;;;1.40;;
74974;SDS011;68459;50.836;19.138;2023-03-31T10:11:28;2.80;;;1.15;;
74974;SDS011;68459;50.836;19.138;2023-03-31T10:14:34;3.00;;;1.13;;
74974;SDS011;68459;50.836;19.138;2023-03-31T10:17:44;5.72;;;1.13;;
74974;SDS011;68459;50.836;19.138;2023-03-31T10:20:52;2.38;;;1.17;;
74974;SDS011;68459;50.836;19.138;2023-03-31T10:24:00;4.90;;;1.25;;
74974;SDS011;68459;50.836;19.138;2023-03-31T10:27:15;2.08;;;1.00;;
74974;SDS011;68459;50.836;19.138;2023-03-31T10:30:27;2.87;;;1.00;;
74974;SDS011;68459;50.836;19.138;2023-03-31T10:33:41;3.25;;;1.10;;
74974;SDS011;68459;50.836;19.138;2023-03-31T10:36:50;3.38;;;1.00;;
74974;SDS011;68459;50.836;19.138;2023-03-31T10:39:55;3.73;;;1.20;;
74974;SDS011;68459;50.836;19.138;2023-03-31T10:43:04;3.05;;;1.00;;
74974;SDS011;68459;50.836;19.138;2023-03-31T10:46:18;5.20;;;1.20;;
74974;SDS011;68459;50.836;19.138;2023-03-31T10:49:25;2.78;;;0.98;;
74974;SDS011;68459;50.836;19.138;2023-03-31T10:52:31;3.80;;;1.35;;
74974;SDS011;68459;50.836;19.138;2023-03-31T10:59:37;2.65;;;1.00;;
74974;SDS011;68459;50.836;19.138;2023-03-31T11:03:08;1.93;;;0.90;;
74974;SDS011;68459;50.836;19.138;2023-03-31T11:06:42;2.47;;;1.02;;
74974;SDS011;68459;50.836;19.138;2023-03-31T11:10:03;3.45;;;0.95;;
74974;SDS011;68459;50.836;19.138;2023-03-31T11:13:33;4.20;;;0.93;;
74974;SDS011;68459;50.836;19.138;2023-03-31T11:16:51;4.33;;;1.03;;
74974;SDS011;68459;50.836;19.138;2023-03-31T11:20:10;4.05;;;0.90;;
74974;SDS011;68459;50.836;19.138;2023-03-31T11:23:29;3.55;;;1.23;;
74974;SDS011;68459;50.836;19.138;2023-03-31T11:26:46;3.05;;;1.50;;
74974;SDS011;68459;50.836;19.138;2023-03-31T11:29:59;5.63;;;1.63;;
74974;SDS011;68459;50.836;19.138;2023-03-31T11:33:20;4.35;;;1.50;;
74974;SDS011;68459;50.836;19.138;2023-03-31T11:36:47;4.25;;;1.55;;
74974;SDS011;68459;50.836;19.138;2023-03-31T11:40:31;3.30;;;1.70;;
74974;SDS011;68459;50.836;19.138;2023-03-31T11:43:52;3.47;;;1.37;;
74974;SDS011;68459;50.836;19.138;2023-03-31T11:47:05;3.15;;;1.02;;
74974;SDS011;68459;50.836;19.138;2023-03-31T11:50:15;4.15;;;1.90;;
74974;SDS011;68459;50.836;19.138;2023-03-31T11:53:25;5.28;;;1.70;;
74974;SDS011;68459;50.836;19.138;2023-03-31T11:56:37;4.90;;;1.97;;
74974;SDS011;68459;50.836;19.138;2023-03-31T11:59:43;3.50;;;1.17;;
74974;SDS011;68459;50.836;19.138;2023-03-31T12:02:58;3.15;;;1.10;;
74974;SDS011;68459;50.836;19.138;2023-03-31T12:06:12;4.07;;;1.00;;
74974;SDS011;68459;50.836;19.138;2023-03-31T12:09:21;3.63;;;1.10;;
74974;SDS011;68459;50.836;19.138;2023-03-31T12:12:34;2.67;;;0.90;;
74974;SDS011;68459;50.836;19.138;2023-03-31T12:15:47;2.67;;;1.10;;
74974;SDS011;68459;50.836;19.138;2023-03-31T12:19:03;1.73;;;0.60;;
74974;SDS011;68459;50.836;19.138;2023-03-31T12:22:18;2.13;;;0.65;;
74974;SDS011;68459;50.836;19.138;2023-03-31T12:25:34;3.05;;;0.90;;
74974;SDS011;68459;50.836;19.138;2023-03-31T12:28:52;3.97;;;1.10;;
74974;SDS011;68459;50.836;19.138;2023-03-31T12:32:06;5.55;;;1.10;;
74974;SDS011;68459;50.836;19.138;2023-03-31T12:35:18;4.22;;;1.20;;
74974;SDS011;68459;50.836;19.138;2023-03-31T12:38:36;3.95;;;1.40;;
74974;SDS011;68459;50.836;19.138;2023-03-31T12:42:02;3.60;;;1.60;;
74974;SDS011;68459;50.836;19.138;2023-03-31T12:45:37;6.75;;;2.42;;
74974;SDS011;68459;50.836;19.138;2023-03-31T12:49:01;6.93;;;2.70;;
74974;SDS011;68459;50.836;19.138;2023-03-31T12:52:24;6.00;;;2.10;;
74974;SDS011;68459;50.836;19.138;2023-03-31T12:55:39;6.30;;;2.20;;
74974;SDS011;68459;50.836;19.138;2023-03-31T12:58:49;7.05;;;2.15;;
74974;SDS011;68459;50.836;19.138;2023-03-31T13:02:16;6.15;;;2.90;;
74974;SDS011;68459;50.836;19.138;2023-03-31T13:05:43;4.77;;;1.30;;
74974;SDS011;68459;50.836;19.138;2023-03-31T13:08:53;2.92;;;0.80;;
74974;SDS011;68459;50.836;19.138;2023-03-31T13:12:04;3.50;;;1.00;;
74974;SDS011;68459;50.836;19.138;2023-03-31T13:15:11;4.15;;;0.82;;
74974;SDS011;68459;50.836;19.138;2023-03-31T13:18:18;4.75;;;0.73;;
74974;SDS011;68459;50.836;19.138;2023-03-31T13:21:24;2.65;;;0.80;;
74974;SDS011;68459;50.836;19.138;2023-03-31T13:24:29;3.45;;;1.27;;
74974;SDS011;68459;50.836;19.138;2023-03-31T13:27:35;3.87;;;0.70;;
74974;SDS011;68459;50.836;19.138;2023-03-31T13:30:44;3.30;;;0.95;;
74974;SDS011;68459;50.836;19.138;2023-03-31T13:33:56;3.33;;;0.90;;
74974;SDS011;68459;50.836;19.138;2023-03-31T13:37:08;2.50;;;0.80;;
74974;SDS011;68459;50.836;19.138;2023-03-31T13:40:31;2.97;;;0.77;;
74974;SDS011;68459;50.836;19.138;2023-03-31T13:44:06;5.43;;;1.20;;
74974;SDS011;68459;50.836;19.138;2023-03-31T13:47:54;5.22;;;1.05;;
74974;SDS011;68459;50.836;19.138;2023-03-31T13:55:05;2.53;;;0.70;;
74974;SDS011;68459;50.836;19.138;2023-03-31T14:02:31;3.67;;;0.60;;
74974;SDS011;68459;50.836;19.138;2023-03-31T14:06:00;2.47;;;0.80;;
74974;SDS011;68459;50.836;19.138;2023-03-31T14:09:10;3.22;;;0.98;;
74974;SDS011;68459;50.836;19.138;2023-03-31T14:12:29;4.03;;;1.30;;
74974;SDS011;68459;50.836;19.138;2023-03-31T14:15:36;5.28;;;1.02;;
74974;SDS011;68459;50.836;19.138;2023-03-31T14:18:46;5.00;;;2.03;;
74974;SDS011;68459;50.836;19.138;2023-03-31T14:22:03;7.93;;;2.33;;
74974;SDS011;68459;50.836;19.138;2023-03-31T14:25:25;6.93;;;2.70;;
74974;SDS011;68459;50.836;19.138;2023-03-31T14:28:53;8.30;;;3.20;;
74974;SDS011;68459;50.836;19.138;2023-03-31T14:32:16;8.90;;;3.95;;
74974;SDS011;68459;50.836;19.138;2023-03-31T14:35:34;8.97;;;3.43;;
74974;SDS011;68459;50.836;19.138;2023-03-31T14:38:44;11.93;;;3.97;;
74974;SDS011;68459;50.836;19.138;2023-03-31T14:41:51;9.30;;;3.20;;
74974;SDS011;68459;50.836;19.138;2023-03-31T14:45:01;10.87;;;3.70;;
74974;SDS011;68459;50.836;19.138;2023-03-31T14:48:11;6.97;;;2.70;;
74974;SDS011;68459;50.836;19.138;2023-03-31T14:51:17;9.75;;;3.40;;
74974;SDS011;68459;50.836;19.138;2023-03-31T14:54:32;8.32;;;3.85;;
74974;SDS011;68459;50.836;19.138;2023-03-31T14:57:40;9.45;;;4.55;;
74974;SDS011;68459;50.836;19.138;2023-03-31T15:00:48;7.22;;;3.38;;
74974;SDS011;68459;50.836;19.138;2023-03-31T15:03:52;9.60;;;3.88;;
74974;SDS011;68459;50.836;19.138;2023-03-31T15:06:58;7.90;;;2.97;;
74974;SDS011;68459;50.836;19.138;2023-03-31T15:10:05;6.10;;;2.67;;
74974;SDS011;68459;50.836;19.138;2023-03-31T15:13:21;6.65;;;2.03;;
74974;SDS011;68459;50.836;19.138;2023-03-31T15:16:35;5.77;;;1.40;;
74974;SDS011;68459;50.836;19.138;2023-03-31T15:19:44;4.95;;;1.48;;
74974;SDS011;68459;50.836;19.138;2023-03-31T15:22:48;4.95;;;1.73;;
74974;SDS011;68459;50.836;19.138;2023-03-31T15:25:53;6.47;;;1.83;;
74974;SDS011;68459;50.836;19.138;2023-03-31T15:29:02;4.40;;;1.70;;
74974;SDS011;68459;50.836;19.138;2023-03-31T15:32:12;6.05;;;1.98;;
74974;SDS011;68459;50.836;19.138;2023-03-31T15:35:20;3.72;;;1.60;;
74974;SDS011;68459;50.836;19.138;2023-03-31T15:38:29;4.83;;;1.50;;
74974;SDS011;68459;50.836;19.138;2023-03-31T15:41:33;4.97;;;1.80;;
74974;SDS011;68459;50.836;19.138;2023-03-31T15:44:42;3.90;;;2.17;;
74974;SDS011;68459;50.836;19.138;2023-03-31T15:47:48;6.60;;;2.30;;
74974;SDS011;68459;50.836;19.138;2023-03-31T15:50:58;5.18;;;2.75;;
74974;SDS011;68459;50.836;19.138;2023-03-31T15:54:11;7.68;;;3.38;;
74974;SDS011;68459;50.836;19.138;2023-03-31T15:57:35;10.63;;;3.55;;
74974;SDS011;68459;50.836;19.138;2023-03-31T16:00:44;8.60;;;3.40;;
74974;SDS011;68459;50.836;19.138;2023-03-31T16:03:53;12.70;;;5.15;;
74974;SDS011;68459;50.836;19.138;2023-03-31T16:06:59;8.90;;;3.25;;
74974;SDS011;68459;50.836;19.138;2023-03-31T16:10:09;6.53;;;3.40;;
74974;SDS011;68459;50.836;19.138;2023-03-31T16:13:22;13.27;;;4.50;;
74974;SDS011;68459;50.836;19.138;2023-03-31T16:16:27;9.35;;;4.45;;
74974;SDS011;68459;50.836;19.138;2023-03-31T16:19:37;8.47;;;3.93;;
74974;SDS011;68459;50.836;19.138;2023-03-31T16:22:48;8.05;;;3.95;;
74974;SDS011;68459;50.836;19.138;2023-03-31T16:25:55;11.85;;;5.25;;
74974;SDS011;68459;50.836;19.138;2023-03-31T16:28:59;15.65;;;5.13;;
74974;SDS011;68459;50.836;19.138;2023-03-31T16:32:08;14.48;;;5.63;;
74974;SDS011;68459;50.836;19.138;2023-03-31T16:35:15;12.48;;;5.00;;
74974;SDS011;68459;50.836;19.138;2023-03-31T16:38:19;12.52;;;5.07;;
74974;SDS011;68459;50.836;19.138;2023-03-31T16:41:26;13.37;;;5.70;;
74974;SDS011;68459;50.836;19.138;2023-03-31T16:44:31;10.40;;;4.55;;
74974;SDS011;68459;50.836;19.138;2023-03-31T16:47:36;14.30;;;5.95;;
74974;SDS011;68459;50.836;19.138;2023-03-31T16:50:40;12.20;;;6.17;;
74974;SDS011;68459;50.836;19.138;2023-03-31T16:53:44;17.52;;;6.70;;
74974;SDS011;68459;50.836;19.138;2023-03-31T16:56:49;12.45;;;6.55;;
74974;SDS011;68459;50.836;19.138;2023-03-31T16:59:53;12.90;;;5.93;;
74974;SDS011;68459;50.836;19.138;2023-03-31T17:03:01;14.43;;;6.50;;
74974;SDS011;68459;50.836;19.138;2023-03-31T17:06:07;14.50;;;7.55;;
74974;SDS011;68459;50.836;19.138;2023-03-31T17:09:13;14.23;;;6.55;;
74974;SDS011;68459;50.836;19.138;2023-03-31T17:12:16;16.27;;;6.23;;
74974;SDS011;68459;50.836;19.138;2023-03-31T17:15:20;12.40;;;6.15;;
74974;SDS011;68459;50.836;19.138;2023-03-31T17:18:26;13.57;;;6.07;;
74974;SDS011;68459;50.836;19.138;2023-03-31T17:21:29;12.83;;;5.03;;
74974;SDS011;68459;50.836;19.138;2023-03-31T17:24:33;7.60;;;3.95;;
74974;SDS011;68459;50.836;19.138;2023-03-31T17:27:37;13.00;;;4.63;;
74974;SDS011;68459;50.836;19.138;2023-03-31T17:30:41;11.68;;;4.22;;
74974;SDS011;68459;50.836;19.138;2023-03-31T17:33:49;11.70;;;4.78;;
74974;SDS011;68459;50.836;19.138;2023-03-31T17:36:53;14.07;;;5.28;;
74974;SDS011;68459;50.836;19.138;2023-03-31T17:39:57;11.57;;;5.28;;
74974;SDS011;68459;50.836;19.138;2023-03-31T17:43:02;13.97;;;6.07;;
74974;SDS011;68459;50.836;19.138;2023-03-31T17:46:07;18.75;;;8.02;;
74974;SDS011;68459;50.836;19.138;2023-03-31T17:49:15;23.35;;;10.77;;
74974;SDS011;68459;50.836;19.138;2023-03-31T17:52:19;15.70;;;8.97;;
74974;SDS011;68459;50.836;19.138;2023-03-31T17:55:23;16.20;;;6.97;;
74974;SDS011;68459;50.836;19.138;2023-03-31T17:58:27;15.20;;;6.30;;
74974;SDS011;68459;50.836;19.138;2023-03-31T18:01:33;11.50;;;5.80;;
74974;SDS011;68459;50.836;19.138;2023-03-31T18:04:38;18.25;;;6.30;;
74974;SDS011;68459;50.836;19.138;2023-03-31T18:07:42;11.80;;;6.78;;
74974;SDS011;68459;50.836;19.138;2023-03-31T18:10:46;16.02;;;7.95;;
74974;SDS011;68459;50.836;19.138;2023-03-31T18:13:50;16.70;;;8.00;;
74974;SDS011;68459;50.836;19.138;2023-03-31T18:16:54;18.30;;;9.48;;
74974;SDS011;68459;50.836;19.138;2023-03-31T18:20:00;23.20;;;10.82;;
74974;SDS011;68459;50.836;19.138;2023-03-31T18:23:04;45.63;;;19.10;;
74974;SDS011;68459;50.836;19.138;2023-03-31T18:26:09;43.55;;;19.02;;
74974;SDS011;68459;50.836;19.138;2023-03-31T18:29:14;38.03;;;19.02;;
74974;SDS011;68459;50.836;19.138;2023-03-31T18:32:18;33.17;;;15.70;;
74974;SDS011;68459;50.836;19.138;2023-03-31T18:35:24;33.92;;;15.52;;
74974;SDS011;68459;50.836;19.138;2023-03-31T18:38:28;30.75;;;14.90;;
74974;SDS011;68459;50.836;19.138;2023-03-31T18:41:32;25.70;;;13.13;;
74974;SDS011;68459;50.836;19.138;2023-03-31T18:44:36;24.17;;;13.30;;
74974;SDS011;68459;50.836;19.138;2023-03-31T18:47:43;24.33;;;10.90;;
74974;SDS011;68459;50.836;19.138;2023-03-31T18:50:48;24.15;;;10.85;;
74974;SDS011;68459;50.836;19.138;2023-03-31T18:53:54;25.17;;;9.67;;
74974;SDS011;68459;50.836;19.138;2023-03-31T18:56:58;21.42;;;9.95;;